createdAt,value
2019-06-07T00:00:47.658Z,101178.00
2019-06-07T00:05:52.409Z,101168.00
2019-06-07T00:10:56.951Z,101188.00
2019-06-07T00:16:01.397Z,101169.00
2019-06-07T00:21:08.581Z,101159.00
2019-06-07T00:26:13.319Z,101149.00
2019-06-07T00:31:24.154Z,101173.00
2019-06-07T00:36:24.919Z,101167.00
2019-06-07T00:41:29.415Z,101162.00
2019-06-07T00:46:33.840Z,101160.00
2019-06-07T00:51:49.984Z,101168.00
2019-06-07T00:56:44.473Z,101182.00
2019-06-07T01:01:49.026Z,101194.00
2019-06-07T01:06:53.470Z,101192.00
2019-06-07T01:11:58.089Z,101182.00
2019-06-07T01:17:39.890Z,101180.00
2019-06-07T01:22:31.726Z,101173.00
2019-06-07T01:27:36.395Z,101172.00
2019-06-07T01:32:40.963Z,101166.00
2019-06-07T01:37:45.409Z,101168.00
2019-06-07T01:42:49.940Z,101172.00
2019-06-07T01:47:54.506Z,101173.00
2019-06-07T01:52:59.015Z,101168.00
2019-06-07T01:58:03.873Z,101167.00
2019-06-07T02:03:08.455Z,101162.00
2019-06-07T02:08:12.959Z,101153.00
2019-06-07T02:13:17.376Z,101152.00
2019-06-07T02:18:23.798Z,101149.00
2019-06-07T02:23:31.650Z,101146.00
2019-06-07T02:28:44.945Z,101142.00
2019-06-07T02:33:41.497Z,101147.00
2019-06-07T02:38:45.998Z,101141.00
2019-06-07T02:43:50.411Z,101138.00
2019-06-07T02:48:55.817Z,101153.00
2019-06-07T02:54:00.313Z,101146.00
2019-06-07T02:59:05.250Z,101148.00
2019-06-07T03:04:10.419Z,101146.00
2019-06-07T03:09:14.922Z,101130.00
2019-06-07T03:14:22.403Z,101141.00
2019-06-07T03:19:31.356Z,101125.00
2019-06-07T03:24:41.296Z,101112.00
2019-06-07T03:29:43.708Z,101130.00
2019-06-07T03:34:48.228Z,101158.00
2019-06-07T03:39:52.666Z,101153.00
2019-06-07T03:44:57.119Z,101156.00
2019-06-07T03:50:01.631Z,101143.00
2019-06-07T03:55:07.861Z,101123.00
2019-06-07T04:00:12.666Z,101134.00
2019-06-07T04:05:17.165Z,101162.00
2019-06-07T04:10:44.768Z,101164.00
2019-06-07T04:15:28.161Z,101179.00
2019-06-07T04:20:34.560Z,101169.00
2019-06-07T04:25:42.263Z,101164.00
2019-06-07T04:30:46.616Z,101179.00
2019-06-07T04:35:51.830Z,101182.00
2019-06-07T04:40:57.068Z,101182.00
2019-06-07T04:46:02.994Z,101175.00
2019-06-07T04:51:08.576Z,101172.00
2019-06-07T04:56:13.077Z,101167.00
2019-06-07T05:01:27.227Z,101175.00
2019-06-07T05:06:23.831Z,101185.00
2019-06-07T05:11:31.490Z,101185.00
2019-06-07T05:16:37.934Z,101191.00
2019-06-07T05:22:01.597Z,101178.00
2019-06-07T05:26:47.166Z,101160.00
2019-06-07T05:31:51.950Z,101175.00
2019-06-07T05:37:11.058Z,101177.00
2019-06-07T05:42:02.531Z,101178.00
2019-06-07T05:47:07.042Z,101169.00
2019-06-07T05:52:11.532Z,101169.00
2019-06-07T05:57:16.084Z,101178.00
2019-06-07T06:02:23.154Z,101162.00
2019-06-07T06:07:26.857Z,101170.00
2019-06-07T06:12:35.225Z,101177.00
2019-06-07T06:17:41.389Z,101182.00
2019-06-07T06:22:48.818Z,101169.00
2019-06-07T06:28:09.914Z,101158.00
2019-06-07T06:32:58.492Z,101170.00
2019-06-07T06:38:03.213Z,101178.00
2019-06-07T06:43:07.715Z,101178.00
2019-06-07T06:48:12.392Z,101186.00
2019-06-07T06:53:16.937Z,101200.00
2019-06-07T06:58:21.376Z,101225.00
2019-06-07T07:08:32.179Z,101225.00
2019-06-07T07:13:38.310Z,101225.00
2019-06-07T07:18:44.272Z,101214.00
2019-06-07T07:24:12.367Z,101202.00
2019-06-07T07:28:57.698Z,101195.00
2019-06-07T07:39:09.964Z,101202.00
2019-06-07T07:44:14.804Z,101202.00
2019-06-07T07:49:19.421Z,101192.00
2019-06-07T07:54:23.937Z,101198.00
2019-06-07T07:59:41.972Z,101193.00
2019-06-07T08:05:13.077Z,101183.00
2019-06-07T08:09:41.154Z,101191.00
2019-06-07T08:14:45.597Z,101179.00
2019-06-07T08:19:54.224Z,101190.00
2019-06-07T08:25:01.842Z,101169.00
2019-06-07T08:30:47.207Z,101163.00
2019-06-07T08:36:03.150Z,101175.00
2019-06-07T08:40:29.641Z,101170.00
2019-06-07T08:45:34.223Z,101173.00
2019-06-07T08:50:38.726Z,101178.00
2019-06-07T08:55:43.396Z,101192.00
2019-06-07T09:00:48.235Z,101174.00
2019-06-07T09:05:54.169Z,101174.00
2019-06-07T09:11:02.327Z,101179.00
2019-06-07T09:16:08.652Z,101186.00
2019-06-07T09:21:12.015Z,101177.00
2019-06-07T09:26:18.862Z,101171.00
2019-06-07T09:31:22.928Z,101153.00
2019-06-07T09:36:27.598Z,101153.00
2019-06-07T09:41:46.731Z,101149.00
2019-06-07T09:46:38.390Z,101147.00
2019-06-07T09:51:42.935Z,101146.00
2019-06-07T09:56:47.496Z,101133.00
2019-06-07T10:01:51.998Z,101136.00
2019-06-07T10:07:03.335Z,101147.00
2019-06-07T10:12:04.566Z,101129.00
2019-06-07T10:17:09.251Z,101114.00
2019-06-07T10:22:13.726Z,101118.00
2019-06-07T10:27:18.278Z,101126.00
2019-06-07T10:32:22.839Z,101124.00
2019-06-07T10:37:27.415Z,101112.00
2019-06-07T10:42:31.985Z,101110.00
2019-06-07T10:47:36.438Z,101100.00
2019-06-07T10:52:41.003Z,101085.00
2019-06-07T10:57:45.502Z,101085.00
2019-06-07T11:02:55.296Z,101080.00
2019-06-07T11:08:00.684Z,101077.00
2019-06-07T11:13:06.087Z,101073.00
2019-06-07T11:18:12.458Z,101071.00
2019-06-07T11:23:18.340Z,101060.00
2019-06-07T11:28:23.116Z,101062.00
2019-06-07T11:33:27.617Z,101050.00
2019-06-07T11:38:32.237Z,101041.00
2019-06-07T11:43:36.810Z,101053.00
2019-06-07T11:48:41.309Z,101057.00
2019-06-07T11:53:45.820Z,101038.00
2019-06-07T11:58:50.232Z,101029.00
2019-06-07T12:03:58.240Z,101036.00
2019-06-07T12:09:01.172Z,101033.00
2019-06-07T12:14:06.310Z,101038.00
2019-06-07T12:19:11.816Z,101025.00
2019-06-07T12:24:16.665Z,101017.00
2019-06-07T12:29:21.314Z,101025.00
2019-06-07T12:34:28.313Z,101010.00
2019-06-07T12:39:32.996Z,101021.00
2019-06-07T12:44:37.417Z,101008.00
2019-06-07T12:49:42.318Z,100994.00
2019-06-07T12:54:46.839Z,100987.00
2019-06-07T12:59:51.410Z,100974.00
2019-06-07T13:04:56.000Z,100967.00
2019-06-07T13:10:00.527Z,100958.00
2019-06-07T13:15:07.497Z,100959.00
2019-06-07T13:20:12.646Z,100946.00
2019-06-07T13:25:18.771Z,100954.00
2019-06-07T13:30:25.537Z,100945.00
2019-06-07T13:35:30.298Z,100952.00
2019-06-07T13:40:34.729Z,100941.00
2019-06-07T13:45:39.286Z,100941.00
2019-06-07T13:50:43.834Z,100933.00
2019-06-07T13:55:48.361Z,100925.00
2019-06-07T14:00:52.874Z,100906.00
2019-06-07T14:05:57.308Z,100922.00
2019-06-07T14:11:01.902Z,100917.00
2019-06-07T14:16:06.547Z,100922.00
2019-06-07T14:21:11.078Z,100910.00
2019-06-07T14:26:15.556Z,100898.00
2019-06-07T14:31:20.073Z,100900.00
2019-06-07T14:36:24.879Z,100891.00
2019-06-07T14:41:29.615Z,100901.00
2019-06-07T14:46:34.488Z,100894.00
2019-06-07T14:51:39.104Z,100888.00
2019-06-07T14:56:43.817Z,100886.00
2019-06-07T15:01:48.336Z,100881.00
2019-06-07T15:06:53.677Z,100858.00
2019-06-07T15:11:58.211Z,100859.00
2019-06-07T15:17:02.771Z,100865.00
2019-06-07T15:22:07.326Z,100852.00
2019-06-07T15:27:11.841Z,100832.00
2019-06-07T15:32:16.415Z,100839.00
2019-06-07T15:37:21.065Z,100831.00
2019-06-07T15:42:41.641Z,100815.00
2019-06-07T15:47:31.889Z,100805.00
2019-06-07T15:52:38.230Z,100797.00
2019-06-07T15:57:42.605Z,100797.00
2019-06-07T16:02:47.239Z,100785.00
2019-06-07T16:07:51.801Z,100785.00
2019-06-07T16:13:00.651Z,100788.00
2019-06-07T16:18:02.851Z,100787.00
2019-06-07T16:23:07.684Z,100780.00
2019-06-07T16:28:12.109Z,100779.00
2019-06-07T16:33:16.697Z,100776.00
2019-06-07T16:38:22.295Z,100767.00
2019-06-07T16:43:26.795Z,100760.00
2019-06-07T16:48:31.294Z,100751.00
2019-06-07T16:53:36.233Z,100751.00
2019-06-07T16:58:42.184Z,100738.00
2019-06-07T17:03:47.612Z,100739.00
2019-06-07T17:08:52.202Z,100728.00
2019-06-07T17:13:56.703Z,100730.00
2019-06-07T17:19:01.204Z,100720.00
2019-06-07T17:24:05.774Z,100723.00
2019-06-07T17:29:10.296Z,100719.00
2019-06-07T17:34:14.842Z,100725.00
2019-06-07T17:39:19.259Z,100723.00
2019-06-07T17:44:23.825Z,100724.00
2019-06-07T17:49:28.403Z,100721.00
2019-06-07T17:54:32.892Z,100705.00
2019-06-07T17:59:37.313Z,100703.00
2019-06-07T18:04:43.037Z,100686.00
2019-06-07T18:09:49.685Z,100671.00
2019-06-07T18:14:54.381Z,100684.00
2019-06-07T18:19:59.005Z,100681.00
2019-06-07T18:25:05.176Z,100682.00
2019-06-07T18:30:11.611Z,100670.00
2019-06-07T18:35:16.220Z,100679.00
2019-06-07T18:40:20.737Z,100677.00
2019-06-07T18:45:25.816Z,100683.00
2019-06-07T18:50:30.291Z,100686.00
2019-06-07T18:55:34.857Z,100688.00
2019-06-07T19:00:39.556Z,100696.00
2019-06-07T19:05:52.166Z,100696.00
2019-06-07T19:10:56.924Z,100705.00
2019-06-07T19:16:01.379Z,100687.00
2019-06-07T19:21:05.863Z,100672.00
2019-06-07T19:26:12.007Z,100678.00
2019-06-07T19:31:16.577Z,100678.00
2019-06-07T19:36:21.143Z,100678.00
2019-06-07T19:41:25.625Z,100687.00
2019-06-07T19:46:30.207Z,100699.00
2019-06-07T19:51:34.829Z,100705.00
2019-06-07T19:56:39.263Z,100712.00
2019-06-07T20:01:43.848Z,100702.00
2019-06-07T20:06:48.339Z,100703.00
2019-06-07T20:11:54.305Z,100713.00
2019-06-07T20:16:59.601Z,100697.00
2019-06-07T20:22:05.491Z,100702.00
2019-06-07T20:27:10.317Z,100672.00
2019-06-07T20:32:14.967Z,100686.00
2019-06-07T20:37:19.500Z,100689.00
2019-06-07T20:42:23.992Z,100706.00
2019-06-07T20:47:28.446Z,100700.00
2019-06-07T20:52:32.973Z,100709.00
2019-06-07T20:57:37.532Z,100729.00
2019-06-07T21:02:42.054Z,100738.00
2019-06-07T21:07:46.536Z,100744.00
2019-06-07T21:12:51.599Z,100752.00
2019-06-07T21:17:56.109Z,100736.00
2019-06-07T21:23:00.751Z,100734.00
2019-06-07T21:28:05.239Z,100740.00
2019-06-07T21:33:30.043Z,100731.00
2019-06-07T21:38:34.551Z,100726.00
2019-06-07T21:43:38.987Z,100725.00
2019-06-07T21:48:43.505Z,100698.00
2019-06-07T21:53:47.996Z,100705.00
2019-06-07T21:58:52.429Z,100738.00
2019-06-07T22:03:57.067Z,100753.00
2019-06-07T22:09:01.527Z,100717.00
2019-06-07T22:14:06.388Z,100688.00
2019-06-07T22:19:10.890Z,100671.00
2019-06-07T22:24:15.342Z,100726.00
2019-06-07T22:29:20.003Z,100775.00
2019-06-07T22:34:24.433Z,100810.00
2019-06-07T22:39:28.869Z,100826.00
2019-06-07T22:44:33.305Z,100814.00
2019-06-07T22:49:37.797Z,100864.00
2019-06-07T22:54:42.256Z,100868.00
2019-06-07T22:59:46.779Z,100870.00
2019-06-07T23:04:51.210Z,100867.00
2019-06-07T23:09:55.779Z,100848.00
2019-06-07T23:15:00.264Z,100824.00
2019-06-07T23:20:09.587Z,100803.00
2019-06-07T23:25:20.164Z,100806.00
2019-06-07T23:30:22.002Z,100789.00
2019-06-07T23:35:26.441Z,100772.00
2019-06-07T23:40:30.935Z,100745.00
2019-06-07T23:45:35.366Z,100737.00
2019-06-07T23:50:39.868Z,100724.00
2019-06-07T23:55:44.374Z,100682.00
